sensor_id;sensor_type;location;lat;lon;timestamp;P1;durP1;ratioP1;P2;durP2;ratioP2
48629;SDS011;34426;52.180;4.462;2022-08-23T00:01:33;14.52;;;4.13;;
48629;SDS011;34426;52.180;4.462;2022-08-23T00:04:02;9.00;;;3.55;;
48629;SDS011;34426;52.180;4.462;2022-08-23T00:06:30;13.02;;;4.18;;
48629;SDS011;34426;52.180;4.462;2022-08-23T00:08:56;12.50;;;4.60;;
48629;SDS011;34426;52.180;4.462;2022-08-23T00:11:23;7.75;;;3.88;;
48629;SDS011;34426;52.180;4.462;2022-08-23T00:13:50;12.38;;;4.38;;
48629;SDS011;34426;52.180;4.462;2022-08-23T00:16:15;10.10;;;3.55;;
48629;SDS011;34426;52.180;4.462;2022-08-23T00:18:42;9.30;;;3.47;;
48629;SDS011;34426;52.180;4.462;2022-08-23T00:21:07;12.45;;;4.22;;
48629;SDS011;34426;52.180;4.462;2022-08-23T00:23:33;12.02;;;3.95;;
48629;SDS011;34426;52.180;4.462;2022-08-23T00:25:59;12.93;;;3.83;;
48629;SDS011;34426;52.180;4.462;2022-08-23T00:28:25;11.43;;;4.63;;
48629;SDS011;34426;52.180;4.462;2022-08-23T00:30:50;17.08;;;4.70;;
48629;SDS011;34426;52.180;4.462;2022-08-23T00:33:16;8.38;;;4.03;;
48629;SDS011;34426;52.180;4.462;2022-08-23T00:35:42;18.98;;;5.13;;
48629;SDS011;34426;52.180;4.462;2022-08-23T00:38:08;21.23;;;4.70;;
48629;SDS011;34426;52.180;4.462;2022-08-23T00:40:33;13.00;;;4.60;;
48629;SDS011;34426;52.180;4.462;2022-08-23T00:43:01;10.32;;;4.90;;
48629;SDS011;34426;52.180;4.462;2022-08-23T00:45:32;16.02;;;4.57;;
48629;SDS011;34426;52.180;4.462;2022-08-23T00:48:03;20.15;;;5.00;;
48629;SDS011;34426;52.180;4.462;2022-08-23T00:50:31;8.30;;;3.45;;
48629;SDS011;34426;52.180;4.462;2022-08-23T00:53:03;12.30;;;3.90;;
48629;SDS011;34426;52.180;4.462;2022-08-23T00:55:34;12.77;;;4.60;;
48629;SDS011;34426;52.180;4.462;2022-08-23T00:58:02;9.38;;;3.55;;
48629;SDS011;34426;52.180;4.462;2022-08-23T01:00:28;6.82;;;3.50;;
48629;SDS011;34426;52.180;4.462;2022-08-23T01:02:55;11.60;;;4.32;;
48629;SDS011;34426;52.180;4.462;2022-08-23T01:05:20;12.40;;;3.95;;
48629;SDS011;34426;52.180;4.462;2022-08-23T01:07:49;14.32;;;3.80;;
48629;SDS011;34426;52.180;4.462;2022-08-23T01:10:20;16.38;;;4.05;;
48629;SDS011;34426;52.180;4.462;2022-08-23T01:12:51;10.25;;;4.00;;
48629;SDS011;34426;52.180;4.462;2022-08-23T01:17:49;13.50;;;4.53;;
48629;SDS011;34426;52.180;4.462;2022-08-23T01:20:21;9.98;;;3.60;;
48629;SDS011;34426;52.180;4.462;2022-08-23T01:22:51;13.60;;;3.97;;
48629;SDS011;34426;52.180;4.462;2022-08-23T01:25:22;14.80;;;4.97;;
48629;SDS011;34426;52.180;4.462;2022-08-23T01:27:50;14.32;;;4.22;;
48629;SDS011;34426;52.180;4.462;2022-08-23T01:30:17;8.45;;;3.20;;
48629;SDS011;34426;52.180;4.462;2022-08-23T01:32:46;7.93;;;3.60;;
48629;SDS011;34426;52.180;4.462;2022-08-23T01:35:14;11.98;;;4.43;;
48629;SDS011;34426;52.180;4.462;2022-08-23T01:37:40;11.20;;;3.47;;
48629;SDS011;34426;52.180;4.462;2022-08-23T01:40:06;16.33;;;4.03;;
48629;SDS011;34426;52.180;4.462;2022-08-23T01:42:34;8.93;;;3.63;;
48629;SDS011;34426;52.180;4.462;2022-08-23T01:44:59;9.90;;;3.90;;
48629;SDS011;34426;52.180;4.462;2022-08-23T01:47:25;13.07;;;4.15;;
48629;SDS011;34426;52.180;4.462;2022-08-23T01:49:50;16.05;;;4.00;;
48629;SDS011;34426;52.180;4.462;2022-08-23T01:52:16;9.73;;;4.32;;
48629;SDS011;34426;52.180;4.462;2022-08-23T01:54:41;11.68;;;4.43;;
48629;SDS011;34426;52.180;4.462;2022-08-23T01:57:07;13.02;;;3.70;;
48629;SDS011;34426;52.180;4.462;2022-08-23T01:59:34;10.00;;;3.35;;
48629;SDS011;34426;52.180;4.462;2022-08-23T02:02:00;8.13;;;3.28;;
48629;SDS011;34426;52.180;4.462;2022-08-23T02:04:25;11.27;;;3.53;;
48629;SDS011;34426;52.180;4.462;2022-08-23T02:06:51;8.10;;;3.83;;
48629;SDS011;34426;52.180;4.462;2022-08-23T02:09:16;9.02;;;3.80;;
48629;SDS011;34426;52.180;4.462;2022-08-23T02:11:42;10.15;;;3.60;;
48629;SDS011;34426;52.180;4.462;2022-08-23T02:14:08;10.63;;;3.40;;
48629;SDS011;34426;52.180;4.462;2022-08-23T02:16:37;9.88;;;4.00;;
48629;SDS011;34426;52.180;4.462;2022-08-23T02:19:06;7.32;;;2.95;;
48629;SDS011;34426;52.180;4.462;2022-08-23T02:21:34;9.07;;;3.20;;
48629;SDS011;34426;52.180;4.462;2022-08-23T02:24:02;7.57;;;2.75;;
48629;SDS011;34426;52.180;4.462;2022-08-23T02:26:29;7.57;;;3.03;;
48629;SDS011;34426;52.180;4.462;2022-08-23T02:28:54;11.20;;;3.47;;
48629;SDS011;34426;52.180;4.462;2022-08-23T02:31:20;11.05;;;3.60;;
48629;SDS011;34426;52.180;4.462;2022-08-23T02:33:47;11.07;;;3.22;;
48629;SDS011;34426;52.180;4.462;2022-08-23T02:36:12;9.02;;;3.67;;
48629;SDS011;34426;52.180;4.462;2022-08-23T02:38:38;9.63;;;3.40;;
48629;SDS011;34426;52.180;4.462;2022-08-23T02:41:03;10.05;;;3.78;;
48629;SDS011;34426;52.180;4.462;2022-08-23T02:43:29;15.30;;;3.75;;
48629;SDS011;34426;52.180;4.462;2022-08-23T02:45:54;9.98;;;3.20;;
48629;SDS011;34426;52.180;4.462;2022-08-23T02:48:20;11.30;;;3.65;;
48629;SDS011;34426;52.180;4.462;2022-08-23T02:50:47;16.23;;;3.85;;
48629;SDS011;34426;52.180;4.462;2022-08-23T02:53:12;9.77;;;3.25;;
48629;SDS011;34426;52.180;4.462;2022-08-23T02:55:38;8.27;;;3.53;;
48629;SDS011;34426;52.180;4.462;2022-08-23T02:58:03;10.43;;;3.75;;
48629;SDS011;34426;52.180;4.462;2022-08-23T03:00:29;11.63;;;4.15;;
48629;SDS011;34426;52.180;4.462;2022-08-23T03:02:54;10.18;;;3.92;;
48629;SDS011;34426;52.180;4.462;2022-08-23T03:05:20;15.20;;;3.90;;
48629;SDS011;34426;52.180;4.462;2022-08-23T03:07:47;11.80;;;4.10;;
48629;SDS011;34426;52.180;4.462;2022-08-23T03:10:13;10.70;;;4.53;;
48629;SDS011;34426;52.180;4.462;2022-08-23T03:12:38;10.55;;;3.95;;
48629;SDS011;34426;52.180;4.462;2022-08-23T03:15:04;11.20;;;4.20;;
48629;SDS011;34426;52.180;4.462;2022-08-23T03:17:30;9.90;;;4.78;;
48629;SDS011;34426;52.180;4.462;2022-08-23T03:19:56;9.35;;;4.10;;
48629;SDS011;34426;52.180;4.462;2022-08-23T03:22:21;8.73;;;3.78;;
48629;SDS011;34426;52.180;4.462;2022-08-23T03:24:48;9.50;;;3.58;;
48629;SDS011;34426;52.180;4.462;2022-08-23T03:27:13;7.72;;;3.10;;
48629;SDS011;34426;52.180;4.462;2022-08-23T03:29:39;9.68;;;4.38;;
48629;SDS011;34426;52.180;4.462;2022-08-23T03:32:05;8.13;;;3.65;;
48629;SDS011;34426;52.180;4.462;2022-08-23T03:34:30;9.50;;;3.67;;
48629;SDS011;34426;52.180;4.462;2022-08-23T03:36:56;9.23;;;3.72;;
48629;SDS011;34426;52.180;4.462;2022-08-23T03:39:22;7.22;;;2.83;;
48629;SDS011;34426;52.180;4.462;2022-08-23T03:41:49;7.05;;;3.33;;
48629;SDS011;34426;52.180;4.462;2022-08-23T03:44:14;8.82;;;3.47;;
48629;SDS011;34426;52.180;4.462;2022-08-23T03:46:39;9.60;;;3.83;;
48629;SDS011;34426;52.180;4.462;2022-08-23T03:49:05;10.80;;;3.50;;
48629;SDS011;34426;52.180;4.462;2022-08-23T03:51:31;8.63;;;3.13;;
48629;SDS011;34426;52.180;4.462;2022-08-23T03:53:57;9.13;;;3.35;;
48629;SDS011;34426;52.180;4.462;2022-08-23T03:56:23;11.63;;;3.70;;
48629;SDS011;34426;52.180;4.462;2022-08-23T03:58:51;13.30;;;4.15;;
48629;SDS011;34426;52.180;4.462;2022-08-23T04:01:17;11.70;;;3.78;;
48629;SDS011;34426;52.180;4.462;2022-08-23T04:03:43;9.65;;;3.40;;
48629;SDS011;34426;52.180;4.462;2022-08-23T04:06:08;8.93;;;3.55;;
48629;SDS011;34426;52.180;4.462;2022-08-23T04:08:34;14.20;;;3.42;;
48629;SDS011;34426;52.180;4.462;2022-08-23T04:11:00;13.63;;;3.88;;
48629;SDS011;34426;52.180;4.462;2022-08-23T04:13:25;12.85;;;3.75;;
48629;SDS011;34426;52.180;4.462;2022-08-23T04:15:52;10.57;;;3.78;;
48629;SDS011;34426;52.180;4.462;2022-08-23T04:18:17;9.55;;;3.63;;
48629;SDS011;34426;52.180;4.462;2022-08-23T04:20:43;17.83;;;4.50;;
48629;SDS011;34426;52.180;4.462;2022-08-23T04:23:08;9.13;;;3.78;;
48629;SDS011;34426;52.180;4.462;2022-08-23T04:25:34;13.68;;;3.70;;
48629;SDS011;34426;52.180;4.462;2022-08-23T04:27:59;14.43;;;4.53;;
48629;SDS011;34426;52.180;4.462;2022-08-23T04:30:25;10.13;;;3.42;;
48629;SDS011;34426;52.180;4.462;2022-08-23T04:32:51;9.52;;;3.58;;
48629;SDS011;34426;52.180;4.462;2022-08-23T04:35:17;11.85;;;4.35;;
48629;SDS011;34426;52.180;4.462;2022-08-23T04:37:43;10.70;;;4.20;;
48629;SDS011;34426;52.180;4.462;2022-08-23T04:40:09;18.00;;;4.43;;
48629;SDS011;34426;52.180;4.462;2022-08-23T04:42:35;9.85;;;4.05;;
48629;SDS011;34426;52.180;4.462;2022-08-23T04:45:00;11.77;;;4.03;;
48629;SDS011;34426;52.180;4.462;2022-08-23T04:47:26;12.27;;;4.68;;
48629;SDS011;34426;52.180;4.462;2022-08-23T04:49:53;21.20;;;4.93;;
48629;SDS011;34426;52.180;4.462;2022-08-23T04:52:18;12.27;;;4.45;;
48629;SDS011;34426;52.180;4.462;2022-08-23T04:54:44;12.93;;;4.28;;
48629;SDS011;34426;52.180;4.462;2022-08-23T04:57:09;8.88;;;3.72;;
48629;SDS011;34426;52.180;4.462;2022-08-23T04:59:34;17.77;;;4.30;;
48629;SDS011;34426;52.180;4.462;2022-08-23T05:02:00;12.82;;;4.68;;
48629;SDS011;34426;52.180;4.462;2022-08-23T05:04:25;12.02;;;4.75;;
48629;SDS011;34426;52.180;4.462;2022-08-23T05:06:52;15.90;;;4.50;;
48629;SDS011;34426;52.180;4.462;2022-08-23T05:09:18;9.48;;;4.75;;
48629;SDS011;34426;52.180;4.462;2022-08-23T05:11:43;11.93;;;4.53;;
48629;SDS011;34426;52.180;4.462;2022-08-23T05:14:09;20.92;;;5.80;;
48629;SDS011;34426;52.180;4.462;2022-08-23T05:16:34;11.73;;;4.07;;
48629;SDS011;34426;52.180;4.462;2022-08-23T05:19:00;14.70;;;4.40;;
48629;SDS011;34426;52.180;4.462;2022-08-23T05:21:25;10.63;;;4.53;;
48629;SDS011;34426;52.180;4.462;2022-08-23T05:23:52;12.40;;;4.57;;
48629;SDS011;34426;52.180;4.462;2022-08-23T05:26:18;11.88;;;4.25;;
48629;SDS011;34426;52.180;4.462;2022-08-23T05:28:44;14.27;;;4.32;;
48629;SDS011;34426;52.180;4.462;2022-08-23T05:31:13;12.70;;;4.50;;
48629;SDS011;34426;52.180;4.462;2022-08-23T05:33:40;12.43;;;4.93;;
48629;SDS011;34426;52.180;4.462;2022-08-23T05:36:07;15.40;;;4.82;;
48629;SDS011;34426;52.180;4.462;2022-08-23T05:38:33;14.05;;;6.13;;
48629;SDS011;34426;52.180;4.462;2022-08-23T05:41:00;16.50;;;6.03;;
48629;SDS011;34426;52.180;4.462;2022-08-23T05:43:26;19.23;;;5.43;;
48629;SDS011;34426;52.180;4.462;2022-08-23T05:45:58;12.52;;;5.60;;
48629;SDS011;34426;52.180;4.462;2022-08-23T05:48:24;18.80;;;5.35;;
48629;SDS011;34426;52.180;4.462;2022-08-23T05:50:50;15.63;;;5.75;;
48629;SDS011;34426;52.180;4.462;2022-08-23T05:53:15;15.73;;;5.50;;
48629;SDS011;34426;52.180;4.462;2022-08-23T05:55:40;14.85;;;5.43;;
48629;SDS011;34426;52.180;4.462;2022-08-23T05:58:07;15.48;;;6.35;;
48629;SDS011;34426;52.180;4.462;2022-08-23T06:00:33;16.75;;;6.70;;
48629;SDS011;34426;52.180;4.462;2022-08-23T06:02:58;21.15;;;6.78;;
48629;SDS011;34426;52.180;4.462;2022-08-23T06:05:24;19.02;;;6.72;;
48629;SDS011;34426;52.180;4.462;2022-08-23T06:07:49;19.95;;;7.53;;
48629;SDS011;34426;52.180;4.462;2022-08-23T06:10:14;21.58;;;7.93;;
48629;SDS011;34426;52.180;4.462;2022-08-23T06:12:40;19.88;;;8.05;;
48629;SDS011;34426;52.180;4.462;2022-08-23T06:15:07;21.48;;;7.45;;
48629;SDS011;34426;52.180;4.462;2022-08-23T06:17:33;24.42;;;8.00;;
48629;SDS011;34426;52.180;4.462;2022-08-23T06:19:58;15.57;;;7.80;;
48629;SDS011;34426;52.180;4.462;2022-08-23T06:22:24;21.88;;;8.57;;
48629;SDS011;34426;52.180;4.462;2022-08-23T06:24:49;17.77;;;7.43;;
48629;SDS011;34426;52.180;4.462;2022-08-23T06:27:15;22.50;;;7.82;;
48629;SDS011;34426;52.180;4.462;2022-08-23T06:29:40;20.15;;;7.65;;
48629;SDS011;34426;52.180;4.462;2022-08-23T06:32:08;27.73;;;8.20;;
48629;SDS011;34426;52.180;4.462;2022-08-23T06:34:34;17.10;;;6.88;;
48629;SDS011;34426;52.180;4.462;2022-08-23T06:37:01;19.10;;;8.32;;
48629;SDS011;34426;52.180;4.462;2022-08-23T06:39:29;31.38;;;7.60;;
48629;SDS011;34426;52.180;4.462;2022-08-23T06:41:56;17.75;;;5.97;;
48629;SDS011;34426;52.180;4.462;2022-08-23T06:44:22;24.92;;;6.40;;
48629;SDS011;34426;52.180;4.462;2022-08-23T06:46:48;19.10;;;6.25;;
48629;SDS011;34426;52.180;4.462;2022-08-23T06:49:15;24.40;;;6.53;;
48629;SDS011;34426;52.180;4.462;2022-08-23T06:51:42;18.30;;;6.40;;
48629;SDS011;34426;52.180;4.462;2022-08-23T06:54:09;13.93;;;5.05;;
48629;SDS011;34426;52.180;4.462;2022-08-23T06:56:36;15.95;;;5.10;;
48629;SDS011;34426;52.180;4.462;2022-08-23T06:59:03;12.80;;;4.13;;
48629;SDS011;34426;52.180;4.462;2022-08-23T07:01:30;12.35;;;3.92;;
48629;SDS011;34426;52.180;4.462;2022-08-23T07:03:58;15.85;;;3.92;;
48629;SDS011;34426;52.180;4.462;2022-08-23T07:06:26;10.77;;;3.15;;
48629;SDS011;34426;52.180;4.462;2022-08-23T07:08:52;10.77;;;2.90;;
48629;SDS011;34426;52.180;4.462;2022-08-23T07:11:19;7.00;;;1.92;;
48629;SDS011;34426;52.180;4.462;2022-08-23T07:13:45;7.15;;;1.92;;
48629;SDS011;34426;52.180;4.462;2022-08-23T07:16:10;9.70;;;2.60;;
48629;SDS011;34426;52.180;4.462;2022-08-23T07:18:36;10.07;;;2.40;;
48629;SDS011;34426;52.180;4.462;2022-08-23T07:21:03;10.75;;;2.20;;
48629;SDS011;34426;52.180;4.462;2022-08-23T07:23:31;9.52;;;2.38;;
48629;SDS011;34426;52.180;4.462;2022-08-23T07:25:58;4.88;;;1.58;;
48629;SDS011;34426;52.180;4.462;2022-08-23T07:28:24;7.53;;;1.63;;
48629;SDS011;34426;52.180;4.462;2022-08-23T07:30:49;10.77;;;2.20;;
48629;SDS011;34426;52.180;4.462;2022-08-23T07:33:15;6.47;;;1.40;;
48629;SDS011;34426;52.180;4.462;2022-08-23T07:35:45;6.97;;;1.77;;
48629;SDS011;34426;52.180;4.462;2022-08-23T07:38:11;6.32;;;1.65;;
48629;SDS011;34426;52.180;4.462;2022-08-23T07:40:38;5.82;;;1.80;;
48629;SDS011;34426;52.180;4.462;2022-08-23T07:43:03;7.97;;;2.55;;
48629;SDS011;34426;52.180;4.462;2022-08-23T07:45:29;8.57;;;1.75;;
48629;SDS011;34426;52.180;4.462;2022-08-23T07:47:54;9.30;;;2.22;;
48629;SDS011;34426;52.180;4.462;2022-08-23T07:50:20;8.30;;;2.38;;
48629;SDS011;34426;52.180;4.462;2022-08-23T07:52:45;6.55;;;1.92;;
48629;SDS011;34426;52.180;4.462;2022-08-23T07:55:11;10.38;;;2.13;;
48629;SDS011;34426;52.180;4.462;2022-08-23T07:57:38;8.00;;;1.67;;
48629;SDS011;34426;52.180;4.462;2022-08-23T08:00:04;6.40;;;2.08;;
48629;SDS011;34426;52.180;4.462;2022-08-23T08:02:30;7.25;;;1.35;;
48629;SDS011;34426;52.180;4.462;2022-08-23T08:04:55;6.63;;;1.63;;
48629;SDS011;34426;52.180;4.462;2022-08-23T08:07:21;17.52;;;2.63;;
48629;SDS011;34426;52.180;4.462;2022-08-23T08:09:46;9.68;;;2.10;;
48629;SDS011;34426;52.180;4.462;2022-08-23T08:12:12;11.45;;;2.67;;
48629;SDS011;34426;52.180;4.462;2022-08-23T08:14:39;6.97;;;1.88;;
48629;SDS011;34426;52.180;4.462;2022-08-23T08:17:04;7.45;;;1.80;;
48629;SDS011;34426;52.180;4.462;2022-08-23T08:19:30;5.35;;;1.40;;
48629;SDS011;34426;52.180;4.462;2022-08-23T08:21:55;11.10;;;2.08;;
48629;SDS011;34426;52.180;4.462;2022-08-23T08:24:21;10.88;;;2.08;;
48629;SDS011;34426;52.180;4.462;2022-08-23T08:26:46;5.50;;;1.70;;
48629;SDS011;34426;52.180;4.462;2022-08-23T08:29:12;8.48;;;2.40;;
48629;SDS011;34426;52.180;4.462;2022-08-23T08:31:39;10.98;;;2.88;;
48629;SDS011;34426;52.180;4.462;2022-08-23T08:34:06;11.02;;;2.33;;
48629;SDS011;34426;52.180;4.462;2022-08-23T08:36:34;9.90;;;2.40;;
48629;SDS011;34426;52.180;4.462;2022-08-23T08:39:02;9.23;;;2.10;;
48629;SDS011;34426;52.180;4.462;2022-08-23T08:41:45;13.90;;;2.25;;
48629;SDS011;34426;52.180;4.462;2022-08-23T08:44:22;10.25;;;2.15;;
48629;SDS011;34426;52.180;4.462;2022-08-23T08:46:55;9.77;;;1.92;;
48629;SDS011;34426;52.180;4.462;2022-08-23T08:49:23;8.85;;;2.22;;
48629;SDS011;34426;52.180;4.462;2022-08-23T08:51:58;9.10;;;2.60;;
48629;SDS011;34426;52.180;4.462;2022-08-23T08:54:27;8.00;;;1.70;;
48629;SDS011;34426;52.180;4.462;2022-08-23T08:56:59;7.90;;;1.98;;
48629;SDS011;34426;52.180;4.462;2022-08-23T08:59:26;11.90;;;1.98;;
48629;SDS011;34426;52.180;4.462;2022-08-23T09:01:55;6.45;;;2.17;;
48629;SDS011;34426;52.180;4.462;2022-08-23T09:04:22;7.45;;;1.80;;
48629;SDS011;34426;52.180;4.462;2022-08-23T09:06:50;6.10;;;1.60;;
48629;SDS011;34426;52.180;4.462;2022-08-23T09:09:26;9.07;;;2.60;;
48629;SDS011;34426;52.180;4.462;2022-08-23T09:12:08;8.65;;;1.70;;
48629;SDS011;34426;52.180;4.462;2022-08-23T09:14:48;9.10;;;1.98;;
48629;SDS011;34426;52.180;4.462;2022-08-23T09:17:26;8.05;;;1.98;;
48629;SDS011;34426;52.180;4.462;2022-08-23T09:19:59;7.88;;;1.98;;
48629;SDS011;34426;52.180;4.462;2022-08-23T09:22:31;5.88;;;1.70;;
48629;SDS011;34426;52.180;4.462;2022-08-23T09:25:00;8.57;;;2.05;;
48629;SDS011;34426;52.180;4.462;2022-08-23T09:27:25;11.02;;;2.00;;
48629;SDS011;34426;52.180;4.462;2022-08-23T09:29:52;8.60;;;2.30;;
48629;SDS011;34426;52.180;4.462;2022-08-23T09:32:28;5.90;;;1.85;;
48629;SDS011;34426;52.180;4.462;2022-08-23T09:35:04;9.02;;;2.58;;
48629;SDS011;34426;52.180;4.462;2022-08-23T09:37:48;7.47;;;1.65;;
48629;SDS011;34426;52.180;4.462;2022-08-23T09:40:20;10.25;;;2.05;;
48629;SDS011;34426;52.180;4.462;2022-08-23T09:43:00;6.20;;;1.85;;
48629;SDS011;34426;52.180;4.462;2022-08-23T09:45:33;7.40;;;2.35;;
48629;SDS011;34426;52.180;4.462;2022-08-23T09:48:01;10.02;;;1.88;;
48629;SDS011;34426;52.180;4.462;2022-08-23T09:50:28;10.65;;;1.90;;
48629;SDS011;34426;52.180;4.462;2022-08-23T09:52:55;6.28;;;1.67;;
48629;SDS011;34426;52.180;4.462;2022-08-23T09:55:27;10.77;;;2.28;;
48629;SDS011;34426;52.180;4.462;2022-08-23T09:57:56;9.50;;;2.25;;
48629;SDS011;34426;52.180;4.462;2022-08-23T10:00:24;10.73;;;2.05;;
48629;SDS011;34426;52.180;4.462;2022-08-23T10:02:51;6.80;;;1.92;;
48629;SDS011;34426;52.180;4.462;2022-08-23T10:05:19;9.32;;;2.40;;
48629;SDS011;34426;52.180;4.462;2022-08-23T10:07:54;11.23;;;2.38;;
48629;SDS011;34426;52.180;4.462;2022-08-23T10:10:24;12.88;;;2.55;;
48629;SDS011;34426;52.180;4.462;2022-08-23T10:12:54;8.93;;;1.95;;
48629;SDS011;34426;52.180;4.462;2022-08-23T10:15:20;8.30;;;2.40;;
48629;SDS011;34426;52.180;4.462;2022-08-23T10:17:55;7.03;;;2.10;;
48629;SDS011;34426;52.180;4.462;2022-08-23T10:20:30;11.30;;;2.10;;
48629;SDS011;34426;52.180;4.462;2022-08-23T10:23:05;8.32;;;2.20;;
48629;SDS011;34426;52.180;4.462;2022-08-23T10:25:42;9.38;;;2.80;;
48629;SDS011;34426;52.180;4.462;2022-08-23T10:28:14;11.32;;;2.15;;
48629;SDS011;34426;52.180;4.462;2022-08-23T10:30:50;8.88;;;2.40;;
48629;SDS011;34426;52.180;4.462;2022-08-23T10:33:23;6.57;;;2.08;;
48629;SDS011;34426;52.180;4.462;2022-08-23T10:35:59;8.95;;;2.08;;
48629;SDS011;34426;52.180;4.462;2022-08-23T10:38:35;11.15;;;2.03;;
48629;SDS011;34426;52.180;4.462;2022-08-23T10:41:09;7.70;;;1.73;;
48629;SDS011;34426;52.180;4.462;2022-08-23T10:43:57;15.27;;;2.42;;
48629;SDS011;34426;52.180;4.462;2022-08-23T10:46:32;7.50;;;2.10;;
48629;SDS011;34426;52.180;4.462;2022-08-23T10:49:09;11.57;;;1.55;;
48629;SDS011;34426;52.180;4.462;2022-08-23T10:51:39;9.23;;;1.80;;
48629;SDS011;34426;52.180;4.462;2022-08-23T10:54:08;11.88;;;2.22;;
48629;SDS011;34426;52.180;4.462;2022-08-23T10:56:37;9.93;;;2.60;;
48629;SDS011;34426;52.180;4.462;2022-08-23T10:59:06;8.35;;;1.50;;
48629;SDS011;34426;52.180;4.462;2022-08-23T11:01:39;4.13;;;1.33;;
48629;SDS011;34426;52.180;4.462;2022-08-23T11:04:15;7.85;;;1.58;;
48629;SDS011;34426;52.180;4.462;2022-08-23T11:06:50;5.07;;;1.42;;
48629;SDS011;34426;52.180;4.462;2022-08-23T11:09:30;5.47;;;1.50;;
48629;SDS011;34426;52.180;4.462;2022-08-23T11:12:21;4.75;;;1.30;;
48629;SDS011;34426;52.180;4.462;2022-08-23T11:14:57;6.55;;;2.00;;
48629;SDS011;34426;52.180;4.462;2022-08-23T11:17:35;7.15;;;2.17;;
48629;SDS011;34426;52.180;4.462;2022-08-23T11:20:08;6.10;;;2.25;;
48629;SDS011;34426;52.180;4.462;2022-08-23T11:25:39;8.77;;;1.92;;
48629;SDS011;34426;52.180;4.462;2022-08-23T11:31:15;6.72;;;2.10;;
48629;SDS011;34426;52.180;4.462;2022-08-23T11:33:47;10.13;;;2.13;;
48629;SDS011;34426;52.180;4.462;2022-08-23T11:36:17;9.30;;;1.83;;
48629;SDS011;34426;52.180;4.462;2022-08-23T11:39:01;11.90;;;2.47;;
48629;SDS011;34426;52.180;4.462;2022-08-23T11:41:34;9.68;;;2.65;;
48629;SDS011;34426;52.180;4.462;2022-08-23T11:44:26;8.13;;;2.42;;
48629;SDS011;34426;52.180;4.462;2022-08-23T11:46:59;4.68;;;1.70;;
48629;SDS011;34426;52.180;4.462;2022-08-23T11:49:30;6.78;;;1.73;;
48629;SDS011;34426;52.180;4.462;2022-08-23T11:55:23;8.10;;;1.90;;
48629;SDS011;34426;52.180;4.462;2022-08-23T11:58:05;9.57;;;1.60;;
48629;SDS011;34426;52.180;4.462;2022-08-23T12:01:02;13.10;;;1.98;;
48629;SDS011;34426;52.180;4.462;2022-08-23T12:03:30;8.88;;;2.17;;
48629;SDS011;34426;52.180;4.462;2022-08-23T12:06:03;9.27;;;1.83;;
48629;SDS011;34426;52.180;4.462;2022-08-23T12:08:45;4.97;;;2.00;;
48629;SDS011;34426;52.180;4.462;2022-08-23T12:11:17;9.23;;;2.13;;
48629;SDS011;34426;52.180;4.462;2022-08-23T12:13:55;9.77;;;2.92;;
48629;SDS011;34426;52.180;4.462;2022-08-23T12:16:34;10.00;;;3.10;;
48629;SDS011;34426;52.180;4.462;2022-08-23T12:19:06;8.38;;;2.10;;
48629;SDS011;34426;52.180;4.462;2022-08-23T12:21:39;8.52;;;2.38;;
48629;SDS011;34426;52.180;4.462;2022-08-23T12:24:12;11.02;;;2.80;;
48629;SDS011;34426;52.180;4.462;2022-08-23T12:26:48;12.73;;;2.80;;
48629;SDS011;34426;52.180;4.462;2022-08-23T12:29:21;9.07;;;3.30;;
48629;SDS011;34426;52.180;4.462;2022-08-23T12:31:59;9.90;;;2.70;;
48629;SDS011;34426;52.180;4.462;2022-08-23T12:34:32;11.25;;;3.03;;
48629;SDS011;34426;52.180;4.462;2022-08-23T12:37:04;12.60;;;2.65;;
48629;SDS011;34426;52.180;4.462;2022-08-23T12:39:38;11.20;;;2.90;;
48629;SDS011;34426;52.180;4.462;2022-08-23T12:42:11;15.30;;;4.20;;
48629;SDS011;34426;52.180;4.462;2022-08-23T12:44:38;8.93;;;2.53;;
48629;SDS011;34426;52.180;4.462;2022-08-23T12:47:13;9.13;;;2.65;;
48629;SDS011;34426;52.180;4.462;2022-08-23T12:49:40;6.93;;;2.42;;
48629;SDS011;34426;52.180;4.462;2022-08-23T12:52:07;7.25;;;2.70;;
48629;SDS011;34426;52.180;4.462;2022-08-23T12:54:35;10.82;;;2.63;;
48629;SDS011;34426;52.180;4.462;2022-08-23T12:57:02;10.18;;;2.50;;
48629;SDS011;34426;52.180;4.462;2022-08-23T12:59:31;13.75;;;2.45;;
48629;SDS011;34426;52.180;4.462;2022-08-23T13:01:59;13.23;;;2.85;;
48629;SDS011;34426;52.180;4.462;2022-08-23T13:04:28;13.93;;;2.30;;
48629;SDS011;34426;52.180;4.462;2022-08-23T13:06:56;5.97;;;1.75;;
48629;SDS011;34426;52.180;4.462;2022-08-23T13:09:26;9.63;;;1.98;;
48629;SDS011;34426;52.180;4.462;2022-08-23T13:11:54;9.90;;;1.85;;
48629;SDS011;34426;52.180;4.462;2022-08-23T13:14:21;6.63;;;2.33;;
48629;SDS011;34426;52.180;4.462;2022-08-23T13:16:47;8.52;;;2.22;;
48629;SDS011;34426;52.180;4.462;2022-08-23T13:19:15;9.63;;;2.38;;
48629;SDS011;34426;52.180;4.462;2022-08-23T13:21:44;8.25;;;2.28;;
48629;SDS011;34426;52.180;4.462;2022-08-23T13:24:25;12.13;;;2.28;;
48629;SDS011;34426;52.180;4.462;2022-08-23T13:27:09;9.63;;;3.20;;
48629;SDS011;34426;52.180;4.462;2022-08-23T13:29:47;12.45;;;2.85;;
48629;SDS011;34426;52.180;4.462;2022-08-23T13:32:25;13.20;;;3.05;;
48629;SDS011;34426;52.180;4.462;2022-08-23T13:34:53;15.07;;;3.72;;
48629;SDS011;34426;52.180;4.462;2022-08-23T13:37:41;5.82;;;2.50;;
48629;SDS011;34426;52.180;4.462;2022-08-23T13:40:12;9.17;;;2.57;;
48629;SDS011;34426;52.180;4.462;2022-08-23T13:42:43;8.45;;;2.72;;
48629;SDS011;34426;52.180;4.462;2022-08-23T13:45:11;9.27;;;2.85;;
48629;SDS011;34426;52.180;4.462;2022-08-23T13:47:42;6.70;;;2.50;;
48629;SDS011;34426;52.180;4.462;2022-08-23T13:50:13;9.50;;;2.50;;
48629;SDS011;34426;52.180;4.462;2022-08-23T13:52:42;6.32;;;2.40;;
48629;SDS011;34426;52.180;4.462;2022-08-23T13:55:07;7.13;;;2.60;;
48629;SDS011;34426;52.180;4.462;2022-08-23T13:57:33;9.02;;;3.05;;
48629;SDS011;34426;52.180;4.462;2022-08-23T14:00:02;11.50;;;2.92;;
48629;SDS011;34426;52.180;4.462;2022-08-23T14:02:29;12.95;;;3.30;;
48629;SDS011;34426;52.180;4.462;2022-08-23T14:04:54;11.23;;;3.05;;
48629;SDS011;34426;52.180;4.462;2022-08-23T14:07:20;10.85;;;3.78;;
48629;SDS011;34426;52.180;4.462;2022-08-23T14:09:47;8.80;;;3.55;;
48629;SDS011;34426;52.180;4.462;2022-08-23T14:12:13;10.55;;;3.63;;
48629;SDS011;34426;52.180;4.462;2022-08-23T14:14:41;13.30;;;4.03;;
48629;SDS011;34426;52.180;4.462;2022-08-23T14:17:07;9.27;;;2.88;;
48629;SDS011;34426;52.180;4.462;2022-08-23T14:19:34;6.95;;;2.78;;
48629;SDS011;34426;52.180;4.462;2022-08-23T14:21:59;5.68;;;3.03;;
48629;SDS011;34426;52.180;4.462;2022-08-23T14:24:24;6.22;;;3.30;;
48629;SDS011;34426;52.180;4.462;2022-08-23T14:26:52;7.35;;;2.60;;
48629;SDS011;34426;52.180;4.462;2022-08-23T14:29:19;5.35;;;2.17;;
48629;SDS011;34426;52.180;4.462;2022-08-23T14:31:45;3.35;;;2.00;;
48629;SDS011;34426;52.180;4.462;2022-08-23T14:34:10;3.20;;;1.70;;
48629;SDS011;34426;52.180;4.462;2022-08-23T14:36:36;4.97;;;1.80;;
48629;SDS011;34426;52.180;4.462;2022-08-23T14:39:02;5.32;;;1.90;;
48629;SDS011;34426;52.180;4.462;2022-08-23T14:41:27;6.72;;;1.42;;
48629;SDS011;34426;52.180;4.462;2022-08-23T14:43:55;4.70;;;1.60;;
48629;SDS011;34426;52.180;4.462;2022-08-23T14:46:21;5.57;;;1.73;;
48629;SDS011;34426;52.180;4.462;2022-08-23T14:48:47;4.82;;;1.50;;
48629;SDS011;34426;52.180;4.462;2022-08-23T14:51:16;5.75;;;2.15;;
48629;SDS011;34426;52.180;4.462;2022-08-23T14:53:48;3.88;;;1.65;;
48629;SDS011;34426;52.180;4.462;2022-08-23T14:56:14;3.70;;;1.58;;
48629;SDS011;34426;52.180;4.462;2022-08-23T14:58:40;5.25;;;1.50;;
48629;SDS011;34426;52.180;4.462;2022-08-23T15:01:07;3.72;;;1.40;;